createdAt,value
2023-01-10T00:03:23.701Z,8.40
2023-01-10T00:08:25.513Z,8.34
2023-01-10T00:13:27.337Z,8.38
2023-01-10T00:18:29.149Z,8.36
2023-01-10T00:23:30.998Z,8.37
2023-01-10T00:28:34.915Z,8.43
2023-01-10T00:33:37.557Z,8.42
2023-01-10T00:38:39.477Z,8.48
2023-01-10T00:43:59.718Z,8.55
2023-01-10T00:49:02.160Z,8.54
2023-01-10T00:54:04.504Z,8.57
2023-01-10T00:59:06.911Z,8.52
2023-01-10T01:04:08.792Z,8.52
2023-01-10T01:09:10.623Z,8.42
2023-01-10T01:14:12.516Z,8.51
2023-01-10T01:19:14.337Z,8.46
2023-01-10T01:24:16.188Z,8.46
2023-01-10T01:29:18.203Z,8.39
2023-01-10T01:34:20.205Z,8.41
2023-01-10T01:39:22.035Z,8.55
2023-01-10T01:44:29.481Z,8.50
2023-01-10T01:49:34.017Z,8.45
2023-01-10T01:54:36.324Z,8.38
2023-01-10T01:59:45.214Z,8.36
2023-01-10T02:04:56.805Z,8.33
2023-01-10T02:10:03.119Z,8.42
2023-01-10T02:15:05.625Z,8.46
2023-01-10T02:20:12.059Z,8.39
2023-01-10T02:25:38.962Z,8.33
2023-01-10T02:31:10.762Z,8.28
2023-01-10T02:36:45.977Z,8.33
2023-01-10T02:42:03.339Z,8.27
2023-01-10T02:47:07.436Z,8.30
2023-01-10T02:52:11.016Z,8.20
2023-01-10T02:57:23.058Z,8.09
2023-01-10T03:02:31.037Z,8.03
2023-01-10T03:07:40.379Z,7.95
2023-01-10T03:12:56.306Z,7.97
2023-01-10T03:18:03.080Z,7.90
2023-01-10T03:23:07.082Z,7.92
2023-01-10T03:28:16.181Z,7.98
2023-01-10T03:33:24.773Z,7.98
2023-01-10T03:38:37.863Z,7.95
2023-01-10T03:44:23.677Z,7.93
2023-01-10T03:49:29.171Z,7.88
2023-01-10T03:54:31.242Z,7.98
2023-01-10T03:59:34.067Z,7.92
2023-01-10T04:04:35.903Z,7.88
2023-01-10T04:09:37.788Z,7.83
2023-01-10T04:14:39.660Z,7.78
2023-01-10T04:19:42.064Z,7.80
2023-01-10T04:24:44.421Z,7.79
2023-01-10T04:29:46.791Z,7.90
2023-01-10T04:34:48.654Z,7.97
2023-01-10T04:39:50.504Z,8.00
2023-01-10T04:44:52.422Z,7.97
2023-01-10T04:49:54.321Z,8.06
2023-01-10T04:54:56.357Z,7.96
2023-01-10T04:59:58.254Z,7.91
2023-01-10T05:05:00.156Z,7.96
2023-01-10T05:10:02.036Z,7.95
2023-01-10T05:15:04.806Z,7.95
2023-01-10T05:20:08.124Z,7.96
2023-01-10T05:25:10.075Z,7.91
2023-01-10T05:30:13.266Z,7.89
2023-01-10T05:35:15.137Z,7.86
2023-01-10T05:40:17.205Z,7.88
2023-01-10T05:45:19.447Z,7.90
2023-01-10T05:50:21.292Z,7.94
2023-01-10T05:55:23.522Z,8.02
2023-01-10T06:00:25.697Z,7.96
2023-01-10T06:05:27.511Z,7.93
2023-01-10T06:10:29.363Z,7.89
2023-01-10T06:15:32.109Z,7.90
2023-01-10T06:20:34.046Z,7.91
2023-01-10T06:25:40.357Z,7.94
2023-01-10T06:30:43.556Z,7.93
2023-01-10T06:35:47.110Z,7.89
2023-01-10T06:40:48.963Z,7.91
2023-01-10T06:45:50.933Z,7.93
2023-01-10T06:50:52.783Z,7.93
2023-01-10T06:55:55.753Z,7.90
2023-01-10T07:00:57.843Z,7.82
2023-01-10T07:06:03.430Z,7.80
2023-01-10T07:11:05.453Z,7.80
2023-01-10T07:16:10.625Z,7.91
2023-01-10T07:21:13.525Z,7.92
2023-01-10T07:26:17.883Z,7.90
2023-01-10T07:31:21.131Z,7.90
2023-01-10T07:36:23.015Z,7.92
2023-01-10T07:41:24.847Z,7.88
2023-01-10T07:46:26.728Z,7.89
2023-01-10T07:51:28.770Z,7.89
2023-01-10T07:56:31.052Z,7.88
2023-01-10T08:01:32.954Z,7.88
2023-01-10T08:06:34.833Z,7.88
2023-01-10T08:11:36.896Z,7.93
2023-01-10T08:16:38.722Z,7.94
2023-01-10T08:21:40.613Z,7.90
2023-01-10T08:26:42.426Z,7.92
2023-01-10T08:31:44.310Z,7.90
2023-01-10T08:36:49.559Z,7.89
2023-01-10T08:41:52.083Z,7.91
2023-01-10T08:46:54.286Z,8.04
2023-01-10T08:51:56.564Z,8.03
2023-01-10T08:56:58.888Z,8.00
2023-01-10T09:02:00.854Z,8.02
2023-01-10T09:07:02.820Z,7.95
2023-01-10T09:12:24.917Z,7.98
2023-01-10T09:17:26.741Z,8.03
2023-01-10T09:22:28.641Z,8.11
2023-01-10T09:27:30.577Z,8.20
2023-01-10T09:32:32.418Z,8.21
2023-01-10T09:37:35.154Z,8.26
2023-01-10T09:42:51.463Z,8.18
2023-01-10T09:48:05.425Z,8.11
2023-01-10T09:53:14.421Z,8.16
2023-01-10T09:58:20.456Z,8.20
2023-01-10T10:03:33.077Z,8.13
2023-01-10T10:08:36.422Z,8.15
2023-01-10T10:13:51.785Z,8.20
2023-01-10T10:19:21.255Z,8.31
2023-01-10T10:24:23.088Z,8.42
2023-01-10T10:29:54.969Z,8.40
2023-01-10T10:35:02.195Z,8.47
2023-01-10T10:40:15.298Z,8.47
2023-01-10T10:45:29.118Z,8.57
2023-01-10T10:50:34.280Z,8.58
2023-01-10T10:55:37.825Z,8.74
2023-01-10T11:00:40.445Z,8.90
2023-01-10T11:05:45.890Z,8.97
2023-01-10T11:10:52.458Z,8.94
2023-01-10T11:15:56.190Z,8.96
2023-01-10T11:21:14.265Z,9.04
2023-01-10T11:26:24.933Z,9.08
2023-01-10T11:31:28.962Z,9.14
2023-01-10T11:36:58.417Z,9.18
2023-01-10T11:42:30.536Z,9.17
2023-01-10T11:47:38.058Z,9.13
2023-01-10T11:52:45.874Z,9.19
2023-01-10T11:58:02.812Z,9.16
2023-01-10T12:03:44.068Z,9.14
2023-01-10T12:08:46.215Z,9.21
2023-01-10T12:13:53.965Z,9.22
2023-01-10T12:19:01.131Z,9.24
2023-01-10T12:24:07.767Z,9.14
2023-01-10T12:29:16.495Z,9.05
2023-01-10T12:34:23.176Z,9.03
2023-01-10T12:39:33.444Z,9.09
2023-01-10T12:44:44.447Z,9.26
2023-01-10T12:49:57.956Z,10.08
2023-01-10T12:55:00.812Z,10.77
2023-01-10T13:00:07.171Z,10.49
2023-01-10T13:05:18.050Z,10.35
2023-01-10T13:10:24.784Z,10.11
2023-01-10T13:15:35.316Z,9.85
2023-01-10T13:20:42.850Z,9.56
2023-01-10T13:25:54.870Z,9.36
2023-01-10T13:31:01.414Z,9.33
2023-01-10T13:36:16.966Z,9.34
2023-01-10T13:41:38.431Z,9.32
2023-01-10T13:46:51.451Z,9.43
2023-01-10T13:52:29.662Z,9.37
2023-01-10T13:57:54.391Z,9.30
2023-01-10T14:02:56.265Z,9.31
2023-01-10T14:07:58.257Z,9.34
2023-01-10T14:13:09.433Z,9.43
2023-01-10T14:18:24.777Z,9.46
2023-01-10T14:23:34.636Z,9.43
2023-01-10T14:28:36.721Z,9.31
2023-01-10T14:33:43.454Z,9.22
2023-01-10T14:38:47.513Z,9.26
2023-01-10T14:43:57.486Z,9.24
2023-01-10T14:49:01.088Z,9.25
2023-01-10T14:54:14.689Z,9.16
2023-01-10T14:59:31.580Z,9.22
2023-01-10T15:04:36.304Z,9.18
2023-01-10T15:09:38.591Z,8.99
2023-01-10T15:14:40.461Z,8.96
2023-01-10T15:19:42.484Z,8.91
2023-01-10T15:24:44.592Z,8.85
2023-01-10T15:29:47.195Z,8.87
2023-01-10T15:34:51.756Z,8.81
2023-01-10T15:39:55.326Z,8.87
2023-01-10T15:44:58.293Z,8.85
2023-01-10T15:50:00.427Z,8.86
2023-01-10T15:55:20.724Z,8.88
2023-01-10T16:00:23.412Z,8.90
2023-01-10T16:05:25.384Z,8.90
2023-01-10T16:10:27.760Z,8.85
2023-01-10T16:15:32.311Z,8.82
2023-01-10T16:20:41.397Z,8.75
2023-01-10T16:25:49.699Z,8.73
2023-01-10T16:30:51.698Z,8.79
2023-01-10T16:35:58.551Z,8.81
2023-01-10T16:41:25.874Z,8.89
2023-01-10T16:46:28.426Z,8.88
2023-01-10T16:51:33.569Z,8.90
2023-01-10T16:56:35.672Z,8.88
2023-01-10T17:01:46.561Z,8.71
2023-01-10T17:06:48.575Z,8.57
2023-01-10T17:11:56.808Z,8.57
2023-01-10T17:16:58.907Z,8.33
2023-01-10T17:22:00.940Z,8.24
2023-01-10T17:27:02.805Z,8.19
2023-01-10T17:32:04.859Z,8.19
2023-01-10T17:37:06.762Z,8.24
2023-01-10T17:42:08.699Z,8.33
2023-01-10T17:47:10.767Z,8.32
2023-01-10T17:52:12.583Z,8.28
2023-01-10T17:57:15.046Z,8.30
2023-01-10T18:02:18.836Z,8.30
2023-01-10T18:07:20.770Z,8.20
2023-01-10T18:12:22.615Z,8.09
2023-01-10T18:17:24.436Z,8.01
2023-01-10T18:22:45.016Z,7.90
2023-01-10T18:27:50.449Z,7.78
2023-01-10T18:32:53.764Z,7.66
2023-01-10T18:37:56.090Z,7.61
2023-01-10T18:42:59.051Z,7.57
2023-01-10T18:48:02.394Z,7.50
2023-01-10T18:53:05.252Z,7.45
2023-01-10T18:58:07.072Z,7.37
2023-01-10T19:03:08.921Z,7.27
2023-01-10T19:08:10.829Z,7.27
2023-01-10T19:13:12.684Z,7.23
2023-01-10T19:18:17.942Z,7.22
2023-01-10T19:23:19.811Z,7.21
2023-01-10T19:28:21.712Z,7.20
2023-01-10T19:33:23.929Z,7.09
2023-01-10T19:38:25.874Z,7.00
2023-01-10T19:43:28.338Z,6.93
2023-01-10T19:48:30.228Z,6.93
2023-01-10T19:53:34.422Z,7.03
2023-01-10T19:58:37.280Z,7.06
2023-01-10T20:03:42.401Z,7.10
2023-01-10T20:08:45.418Z,7.16
2023-01-10T20:13:49.263Z,7.11
2023-01-10T20:18:52.139Z,7.10
2023-01-10T20:23:54.062Z,7.08
2023-01-10T20:29:01.804Z,7.08
2023-01-10T20:34:04.124Z,7.00
2023-01-10T20:39:06.055Z,6.99
2023-01-10T20:44:08.034Z,6.93
2023-01-10T20:49:10.671Z,6.80
2023-01-10T20:54:12.523Z,6.81
2023-01-10T20:59:14.389Z,6.84
2023-01-10T21:04:16.232Z,6.77
2023-01-10T21:09:19.516Z,6.73
2023-01-10T21:14:21.529Z,6.72
2023-01-10T21:19:23.465Z,6.72
2023-01-10T21:24:25.867Z,6.69
2023-01-10T21:29:27.710Z,6.68
2023-01-10T21:34:29.529Z,6.67
2023-01-10T21:39:31.346Z,6.64
2023-01-10T21:44:33.239Z,6.61
2023-01-10T21:49:35.148Z,6.46
2023-01-10T21:54:37.327Z,6.38
2023-01-10T21:59:41.004Z,6.38
2023-01-10T22:04:46.966Z,6.37
2023-01-10T22:09:52.066Z,6.29
2023-01-10T22:14:54.037Z,6.23
2023-01-10T22:19:56.065Z,6.16
2023-01-10T22:24:57.868Z,6.13
2023-01-10T22:29:59.696Z,6.08
2023-01-10T22:35:02.332Z,5.98
2023-01-10T22:40:04.399Z,5.91
2023-01-10T22:45:06.650Z,5.83
2023-01-10T22:50:08.894Z,5.74
2023-01-10T22:55:10.707Z,5.65
2023-01-10T23:00:13.184Z,5.62
2023-01-10T23:05:15.038Z,5.64
2023-01-10T23:10:29.312Z,5.65
2023-01-10T23:15:32.366Z,5.55
2023-01-10T23:20:34.470Z,5.49
2023-01-10T23:25:36.388Z,5.52
2023-01-10T23:30:38.351Z,5.56
2023-01-10T23:35:40.196Z,5.61
2023-01-10T23:40:42.022Z,5.54
2023-01-10T23:45:44.413Z,5.57
2023-01-10T23:50:48.780Z,5.40
2023-01-10T23:55:50.744Z,5.38
